Paderborn, Germany

11:16 AM CET on December 25, 2014 (GMT +0100)
Paderborn-Lippstadt | Change Station
CLOSE
Current Station
Airport
Location: Paderborn,
Elevation: 699 ft
Nearby Weather Stations

Elev 699 ft 51.61 °N, 8.62 °E | Updated 26 minutes ago

Light Rain Showers
Light Showers Rain
39 °F
Feels Like 30 °F
N
16
Wind Variable Wind from WSW

Today
High -- | Low -- °F
--% Chance of Precip.
Yesterday
High -- | Low -- °F
Precip. -- in
8:30 AM 4:20 PM
Waxing Crescent, 15% visible
Pressure 30.12 in
Visibility 6.2 miles
Clouds Scattered Clouds 1600 ft
Mostly Cloudy 2600 ft
Windchill 30 °F
Dew Point 36 °F
Humidity 87%
Rainfall 0.00 in
Snow Depth Not available.
UV 0 out of 12
Pollen Not available.
Air Quality Not available.
Flu Activity Not available.
METAR EDLP 250950Z 25014KT 220V300 9999 -SHRA SCT016 BKN026 04/02 Q1020 RMK ATIS LIM

More Conditions Fewer Conditions

Pressure 30.12 in
Visibility 6.2 miles
Clouds Scattered Clouds 1600 ft
Mostly Cloudy 2600 ft
Windchill 30 °F
Dew Point 36 °F
Humidity 87%
Rainfall 0.00 in
Snow Depth Not available.
UV 0 out of 12
Pollen Not available.
Air Quality Not available.
Flu Activity Not available.
METAR EDLP 250950Z 25014KT 220V300 9999 -SHRA SCT016 BKN026 04/02 Q1020 RMK ATIS LIM

More Conditions Fewer Conditions

10-Day Weather Forecast

Almanac

Astronomy

Dec. 25, 2014 Rise Set
Actual Time
Civil Twilight
Nautical Twilight
Astronomical Twilight
Moon
Length of Visible Light
Length of Day
Tomorrow will be .
, % of the Moon is Illuminated

Today's Extremes

Country Highs Country Lows

Community

WunderPhotos

Upload Photos

1,780,254 photos uploaded!

WunderBlogs® & News

Nearby

Air Quality

  Air Quality AQ Index Pollutant
Not available.

Snow Depth

Station Depth Elevation

Earthquake Activity

City Distance Mag. Time & Date
Minimum magnitude displayed is 2.5.

Coastal Water Temperatures

Place Temperature

Nearby Weather Stations